Goodwood — D5GY7 — position and weather

sailwx.info

Track history (hours):
 
Tides and Currents Weather Stations Pressure Air Temp Water Temp Dewpoint Dewpoint Depression Visibility Wind Speed Wind Dir Waves Ship Positions

Goodwood

Last reported at 2017-Sep-24 06:57 UTC. Time now 2017-Sep-24 07:03 UTC.
Position N 19°09' W 096°03'.

Length 199 m; draft 8.5 m.

Type: Cargo ship. MMSI: 636016606.

Date/timePositionNaut miles runAvg speedWind from/ knotsBaromVisibWave heightAir tempDewpointWater temp
2017-Sep-24 06:57N 19°09' W 096°03'0 0.0
2017-Sep-24 06:27N 19°09' W 096°03'0 0.0
2017-Sep-24 05:57N 19°09' W 096°03'0 0.0
2017-Sep-24 05:27N 19°09' W 096°03'0 0.1
2017-Sep-24 04:57N 19°09' W 096°03'0 0.0
2017-Sep-24 04:27N 19°09' W 096°03'0 0.0
2017-Sep-24 03:57N 19°09' W 096°03'0 0.0
2017-Sep-24 03:27N 19°09' W 096°03'0 0.0
2017-Sep-24 02:57N 19°09' W 096°03'0 0.0
2017-Sep-24 02:21N 19°09' W 096°03'0 0.0
2017-Sep-24 01:57N 19°09' W 096°03'0 0.0
2017-Sep-24 01:27N 19°09' W 096°03'0 0.0
2017-Sep-24 00:57N 19°09' W 096°03'0 0.0
2017-Sep-24 00:30N 19°09' W 096°03'0 0.0
2017-Sep-24 00:01N 19°09' W 096°03'0 0.0
2017-Sep-23 23:31N 19°09' W 096°03'0 0.0
2017-Sep-23 23:00N 19°09' W 096°03'0 0.1
2017-Sep-23 22:31N 19°09' W 096°03'1 1.5
2017-Sep-23 22:01N 19°09' W 096°04'2 4.5
2017-Sep-23 21:31N 19°11' W 096°03'4 8.2
2017-Sep-23 21:00N 19°15' W 096°00'510.1
2017-Sep-23 20:30N 19°20' W 095°60'714.2
2017-Sep-23 20:00N 19°25' W 095°55'62114.8
2017-Sep-22 02:00N 29°44' W 095°03'3 5.9
2017-Sep-22 01:30N 29°44' W 095°07'3 6.3
2017-Sep-22 01:00N 29°45' W 095°10'3 5.9
2017-Sep-22 00:30N 29°44' W 095°13'3 5.1
2017-Sep-22 00:00N 29°44' W 095°16'1 1.0
2017-Sep-21 23:28N 29°44' W 095°17'0 0.0
2017-Sep-21 22:58N 29°44' W 095°17'0 0.0
2017-Sep-21 22:28N 29°44' W 095°17'0 0.0
2017-Sep-21 21:58N 29°44' W 095°17'0 0.0
2017-Sep-21 21:28N 29°44' W 095°17'0 0.0
2017-Sep-21 20:58N 29°44' W 095°17'0 0.0
2017-Sep-21 20:28N 29°44' W 095°17'0 0.0
2017-Sep-21 19:58N 29°44' W 095°17'0 0.0
2017-Sep-21 19:22N 29°44' W 095°17'0 0.0
2017-Sep-21 18:58N 29°44' W 095°17'0 0.0
2017-Sep-21 18:28N 29°44' W 095°17'0 0.0
2017-Sep-21 17:58N 29°44' W 095°17'0 0.0
2017-Sep-21 17:28N 29°44' W 095°17'0 0.0
2017-Sep-21 16:58N 29°44' W 095°17'0 0.0
2017-Sep-21 16:28N 29°44' W 095°17'0 0.0
2017-Sep-21 15:58N 29°44' W 095°17'0 0.0
2017-Sep-21 15:28N 29°44' W 095°17'0 0.0
2017-Sep-21 14:58N 29°44' W 095°17'0 0.0
2017-Sep-21 14:28N 29°44' W 095°17'0 0.0
2017-Sep-21 13:58N 29°44' W 095°17'0 0.0
2017-Sep-21 13:28N 29°44' W 095°17'0 0.0
2017-Sep-21 12:58N 29°44' W 095°17'0 0.0
2017-Sep-21 12:28N 29°44' W 095°17'0 0.0
2017-Sep-21 11:58N 29°44' W 095°17'0 0.0
2017-Sep-21 11:28N 29°44' W 095°17'0 0.0
2017-Sep-21 10:49N 29°44' W 095°17'0 0.0
2017-Sep-21 10:25N 29°44' W 095°17'0 0.0
2017-Sep-21 09:55N 29°44' W 095°17'0 0.0
2017-Sep-21 09:28N 29°44' W 095°17'0 0.0
2017-Sep-21 08:58N 29°44' W 095°17'0 0.0
2017-Sep-21 08:19N 29°44' W 095°17'0 0.0
2017-Sep-21 07:40N 29°44' W 095°17'0 0.0
2017-Sep-21 07:10N 29°44' W 095°17'0 0.0
2017-Sep-21 06:46N 29°44' W 095°17'0 0.0
2017-Sep-21 06:28N 29°44' W 095°17'0 0.0
2017-Sep-21 05:58N 29°44' W 095°17'0 0.0
2017-Sep-21 05:25N 29°44' W 095°17'0 0.0
2017-Sep-21 04:58N 29°44' W 095°17'0 0.0
2017-Sep-21 04:28N 29°44' W 095°17'0 0.0
2017-Sep-21 03:40N 29°44' W 095°17'0 0.0
2017-Sep-21 03:28N 29°44' W 095°17'0 0.0
2017-Sep-21 02:52N 29°44' W 095°17'0 0.0
2017-Sep-21 02:28N 29°44' W 095°17'0 0.0
2017-Sep-21 01:55N 29°44' W 095°17'0 0.0
2017-Sep-21 01:28N 29°44' W 095°17'0 0.0
2017-Sep-21 00:52N 29°44' W 095°17'0 0.0
2017-Sep-21 00:25N 29°44' W 095°17'1 2.0
2017-Sep-21 00:00N 29°44' W 095°16'3 5.6
2017-Sep-20 23:30N 29°44' W 095°13'3 5.8
2017-Sep-20 23:00N 29°44' W 095°09'2 4.9
2017-Sep-20 22:30N 29°44' W 095°07'2 4.8
2017-Sep-20 22:00N 29°45' W 095°04'3 6.8
2017-Sep-20 21:30N 29°42' W 095°01'510.5
2017-Sep-20 21:00N 29°38' W 094°58'612.7
2017-Sep-20 20:30N 29°33' W 094°54'612.7
2017-Sep-20 20:00N 29°27' W 094°51'712.9
2017-Sep-20 19:29N 29°21' W 094°47'  
2017-Sep-17 21:53N 25°21' W 080°01'614.5
2017-Sep-17 21:30N 25°27' W 079°59'816.2
2017-Sep-17 21:00N 25°35' W 079°59'714.6
2017-Sep-17 20:30N 25°42' W 079°58'714.2
2017-Sep-17 20:00N 25°49' W 079°58'714.5
2017-Sep-17 19:30N 25°56' W 079°57'714.5
2017-Sep-17 19:00N 26°04' W 079°57'814.7
2017-Sep-17 18:30N 26°11' W 079°57'3614.8
2017-Sep-17 16:05N 26°47' W 079°56'114.4
2017-Sep-17 15:59N 26°48' W 079°56'714.4
2017-Sep-17 15:30N 26°55' W 079°56'714.2
2017-Sep-17 15:00N 27°02' W 079°57'  
2017-Sep-14 09:34N 33°55' W 076°11'1413.2
2017-Sep-14 08:31N 34°05' W 075°60'012.8
2017-Sep-14 08:29N 34°06' W 075°60'712.9
2017-Sep-14 07:58N 34°11' W 075°54'1012.7
2017-Sep-14 07:12N 34°18' W 075°47'  
Track history (hours):
 
Tides and Currents Weather Stations Pressure Air Temp Water Temp Dewpoint Dewpoint Depression Visibility Wind Speed Wind Dir Waves Ship Positions

Goodwood

Last reported at 2017-Sep-24 06:57 UTC. Time now 2017-Sep-24 07:03 UTC.
Position N 19°09' W 096°03'.

Length 199 m; draft 8.5 m.

Type: Cargo ship. MMSI: 636016606.

Date/timePositionNaut miles runAvg speedWind from/ knotsBaromVisibWave heightAir tempDewpointWater temp
2017-Sep-24 06:57N 19°09' W 096°03'0 0.0
2017-Sep-24 06:27N 19°09' W 096°03'0 0.0
2017-Sep-24 05:57N 19°09' W 096°03'0 0.0
2017-Sep-24 05:27N 19°09' W 096°03'0 0.1
2017-Sep-24 04:57N 19°09' W 096°03'0 0.0
2017-Sep-24 04:27N 19°09' W 096°03'0 0.0
2017-Sep-24 03:57N 19°09' W 096°03'0 0.0
2017-Sep-24 03:27N 19°09' W 096°03'0 0.0
2017-Sep-24 02:57N 19°09' W 096°03'0 0.0
2017-Sep-24 02:21N 19°09' W 096°03'0 0.0
2017-Sep-24 01:57N 19°09' W 096°03'0 0.0
2017-Sep-24 01:27N 19°09' W 096°03'0 0.0
2017-Sep-24 00:57N 19°09' W 096°03'0 0.0
2017-Sep-24 00:30N 19°09' W 096°03'0 0.0
2017-Sep-24 00:01N 19°09' W 096°03'0 0.0
2017-Sep-23 23:31N 19°09' W 096°03'0 0.0
2017-Sep-23 23:00N 19°09' W 096°03'0 0.1
2017-Sep-23 22:31N 19°09' W 096°03'1 1.5
2017-Sep-23 22:01N 19°09' W 096°04'2 4.5
2017-Sep-23 21:31N 19°11' W 096°03'4 8.2
2017-Sep-23 21:00N 19°15' W 096°00'510.1
2017-Sep-23 20:30N 19°20' W 095°60'714.2
2017-Sep-23 20:00N 19°25' W 095°55'62114.8
2017-Sep-22 02:00N 29°44' W 095°03'3 5.9
2017-Sep-22 01:30N 29°44' W 095°07'3 6.3
2017-Sep-22 01:00N 29°45' W 095°10'3 5.9
2017-Sep-22 00:30N 29°44' W 095°13'3 5.1
2017-Sep-22 00:00N 29°44' W 095°16'1 1.0
2017-Sep-21 23:28N 29°44' W 095°17'0 0.0
2017-Sep-21 22:58N 29°44' W 095°17'0 0.0
2017-Sep-21 22:28N 29°44' W 095°17'0 0.0
2017-Sep-21 21:58N 29°44' W 095°17'0 0.0
2017-Sep-21 21:28N 29°44' W 095°17'0 0.0
2017-Sep-21 20:58N 29°44' W 095°17'0 0.0
2017-Sep-21 20:28N 29°44' W 095°17'0 0.0
2017-Sep-21 19:58N 29°44' W 095°17'0 0.0
2017-Sep-21 19:22N 29°44' W 095°17'0 0.0
2017-Sep-21 18:58N 29°44' W 095°17'0 0.0
2017-Sep-21 18:28N 29°44' W 095°17'0 0.0
2017-Sep-21 17:58N 29°44' W 095°17'0 0.0
2017-Sep-21 17:28N 29°44' W 095°17'0 0.0
2017-Sep-21 16:58N 29°44' W 095°17'0 0.0
2017-Sep-21 16:28N 29°44' W 095°17'0 0.0
2017-Sep-21 15:58N 29°44' W 095°17'0 0.0
2017-Sep-21 15:28N 29°44' W 095°17'0 0.0
2017-Sep-21 14:58N 29°44' W 095°17'0 0.0
2017-Sep-21 14:28N 29°44' W 095°17'0 0.0
2017-Sep-21 13:58N 29°44' W 095°17'0 0.0
2017-Sep-21 13:28N 29°44' W 095°17'0 0.0
2017-Sep-21 12:58N 29°44' W 095°17'0 0.0
2017-Sep-21 12:28N 29°44' W 095°17'0 0.0
2017-Sep-21 11:58N 29°44' W 095°17'0 0.0
2017-Sep-21 11:28N 29°44' W 095°17'0 0.0
2017-Sep-21 10:49N 29°44' W 095°17'0 0.0
2017-Sep-21 10:25N 29°44' W 095°17'0 0.0
2017-Sep-21 09:55N 29°44' W 095°17'0 0.0
2017-Sep-21 09:28N 29°44' W 095°17'0 0.0
2017-Sep-21 08:58N 29°44' W 095°17'0 0.0
2017-Sep-21 08:19N 29°44' W 095°17'0 0.0
2017-Sep-21 07:40N 29°44' W 095°17'0 0.0
2017-Sep-21 07:10N 29°44' W 095°17'0 0.0
2017-Sep-21 06:46N 29°44' W 095°17'0 0.0
2017-Sep-21 06:28N 29°44' W 095°17'0 0.0
2017-Sep-21 05:58N 29°44' W 095°17'0 0.0
2017-Sep-21 05:25N 29°44' W 095°17'0 0.0
2017-Sep-21 04:58N 29°44' W 095°17'0 0.0
2017-Sep-21 04:28N 29°44' W 095°17'0 0.0
2017-Sep-21 03:40N 29°44' W 095°17'0 0.0
2017-Sep-21 03:28N 29°44' W 095°17'0 0.0
2017-Sep-21 02:52N 29°44' W 095°17'0 0.0
2017-Sep-21 02:28N 29°44' W 095°17'0 0.0
2017-Sep-21 01:55N 29°44' W 095°17'0 0.0
2017-Sep-21 01:28N 29°44' W 095°17'0 0.0
2017-Sep-21 00:52N 29°44' W 095°17'0 0.0
2017-Sep-21 00:25N 29°44' W 095°17'1 2.0
2017-Sep-21 00:00N 29°44' W 095°16'3 5.6
2017-Sep-20 23:30N 29°44' W 095°13'3 5.8
2017-Sep-20 23:00N 29°44' W 095°09'2 4.9
2017-Sep-20 22:30N 29°44' W 095°07'2 4.8
2017-Sep-20 22:00N 29°45' W 095°04'3 6.8
2017-Sep-20 21:30N 29°42' W 095°01'510.5
2017-Sep-20 21:00N 29°38' W 094°58'612.7
2017-Sep-20 20:30N 29°33' W 094°54'612.7
2017-Sep-20 20:00N 29°27' W 094°51'712.9
2017-Sep-20 19:29N 29°21' W 094°47'  
2017-Sep-17 21:53N 25°21' W 080°01'614.5
2017-Sep-17 21:30N 25°27' W 079°59'816.2
2017-Sep-17 21:00N 25°35' W 079°59'714.6
2017-Sep-17 20:30N 25°42' W 079°58'714.2
2017-Sep-17 20:00N 25°49' W 079°58'714.5
2017-Sep-17 19:30N 25°56' W 079°57'714.5
2017-Sep-17 19:00N 26°04' W 079°57'814.7
2017-Sep-17 18:30N 26°11' W 079°57'3614.8
2017-Sep-17 16:05N 26°47' W 079°56'114.4
2017-Sep-17 15:59N 26°48' W 079°56'714.4
2017-Sep-17 15:30N 26°55' W 079°56'714.2
2017-Sep-17 15:00N 27°02' W 079°57'  
2017-Sep-14 09:34N 33°55' W 076°11'1413.2
2017-Sep-14 08:31N 34°05' W 075°60'012.8
2017-Sep-14 08:29N 34°06' W 075°60'712.9
2017-Sep-14 07:58N 34°11' W 075°54'1012.7
2017-Sep-14 07:12N 34°18' W 075°47'  

Dump ship's entire track history